Weather reports worldwide

Advertisment
Capdepera,Faro, Spain (8311): temperature & dewpoint: 12.07.2019 07:00:00 - 18.07.2019 07:00:00 (CEST)Capdepera,Faro, Spain (8311): wind speed & gusts: 12.07.2019 07:00:00 - 18.07.2019 07:00:00 (CEST)Capdepera,Faro, Spain (8311): wind direction: 12.07.2019 07:00:00 - 18.07.2019 07:00:00 (CEST)Capdepera,Faro, Spain (8311): precipitation: 12.07.2019 07:00:00 - 18.07.2019 07:00:00 (CEST)
Date & Time tt [°C] td [°C] ff [km/h] ff [kn] fx [km/h] fx [kn] dd rr [mm]
18.07.2019 07:00:00 24,1 17,1 9 5 16 9 NW 0,0
18.07.2019 06:00:00 24,4 15,3 9 5 12 7 NW 0,0
18.07.2019 05:00:00 24,2 15,4 5 3 9 5 NNW 0,0
18.07.2019 04:00:00 24,4 15,6 7 4 10 6 NW 0,0
18.07.2019 03:00:00 24,2 17,4 6 3 13 7 WSW 0,0
18.07.2019 02:00:00 24,1 18,7 2 1 7 4 SW -
18.07.2019 01:00:00 24,3 18,9 1 1 7 4 SW 0,0
18.07.2019 00:00:00 24,7 19,1 3 2 8 4 E 0,0
17.07.2019 23:00:00 24,8 18,7 5 3 11 6 NE 0,0
17.07.2019 22:00:00 25,1 18,5 9 5 12 7 NNE 0,0
17.07.2019 21:00:00 25,4 18,3 3 2 15 8 E 0,0
17.07.2019 20:00:00 25,9 18,6 12 6 18 10 S -
17.07.2019 19:00:00 26,4 18,8 14 7 17 9 S 0,0
17.07.2019 18:00:00 27,7 19,0 13 7 21 11 S 0,0
17.07.2019 17:00:00 26,8 18,9 15 8 23 13 S 0,0
17.07.2019 16:00:00 27,4 19,2 14 8 22 12 S 0,0
17.07.2019 15:00:00 27,3 19,1 21 11 23 12 S 0,0
17.07.2019 14:00:00 29,3 19,6 16 9 19 11 S -
17.07.2019 13:00:00 29,9 20,2 14 8 17 9 SSE 0,0
17.07.2019 12:00:00 28,8 20,0 13 7 16 8 SSE 0,0
17.07.2019 11:00:00 29,7 19,4 10 6 14 8 SSE 0,0
17.07.2019 10:00:00 29,0 17,2 7 4 9 5 SSE 0,0
17.07.2019 09:00:00 28,0 18,4 6 3 9 5 N 0,0
17.07.2019 08:00:00 27,3 17,2 1 1 7 4 N -
17.07.2019 07:00:00 23,5 16,3 2 1 6 3 WSW 0,0
17.07.2019 06:00:00 23,2 16,0 6 3 7 4 W 0,0
17.07.2019 05:00:00 23,3 17,1 4 2 8 4 S 0,0
17.07.2019 04:00:00 23,2 17,2 3 1 5 3 S 0,0
17.07.2019 03:00:00 23,4 17,6 1 1 6 4 WSW 0,0
17.07.2019 02:00:00 23,6 17,8 3 1 6 4 SW -
17.07.2019 01:00:00 23,9 17,6 1 1 8 5 SE 0,0
17.07.2019 00:00:00 24,0 18,0 0 0 10 5 NW 0,0
16.07.2019 23:00:00 24,3 17,8 3 1 13 7 SW 0,0
16.07.2019 22:00:00 24,8 17,3 6 3 11 6 SSW 0,0
16.07.2019 21:00:00 25,3 17,0 7 4 10 5 S 0,0
16.07.2019 20:00:00 25,8 16,6 5 3 11 6 SSE -
16.07.2019 19:00:00 26,6 16,5 9 5 16 8 NNW 0,0
16.07.2019 18:00:00 28,3 17,5 11 6 19 11 NNW 0,0
16.07.2019 17:00:00 29,1 17,9 16 9 22 12 N 0,0
16.07.2019 16:00:00 29,5 18,3 17 9 21 12 N 0,0
16.07.2019 15:00:00 30,0 17,8 18 10 23 12 NNW 0,0
16.07.2019 14:00:00 29,6 18,4 21 11 24 13 NNW -
16.07.2019 13:00:00 29,8 18,6 19 10 26 14 NNW 0,0
16.07.2019 12:00:00 28,6 18,4 23 12 27 15 NNW 0,0
16.07.2019 11:00:00 27,4 18,4 22 12 29 15 NNW 0,0
16.07.2019 10:00:00 27,2 17,9 17 9 24 13 NNW 0,0
16.07.2019 09:00:00 26,8 17,6 15 8 25 13 NW 0,0
16.07.2019 08:00:00 26,8 16,7 18 10 22 12 NNW -
16.07.2019 07:00:00 25,4 14,8 11 6 22 12 NNW 0,0
16.07.2019 06:00:00 24,8 14,0 11 6 19 10 NW 0,0
16.07.2019 05:00:00 25,0 13,9 12 6 19 10 NW 0,0
16.07.2019 04:00:00 24,9 13,5 15 8 21 11 NW 0,0
16.07.2019 03:00:00 25,2 14,3 9 5 19 10 W 0,0
16.07.2019 02:00:00 24,4 14,5 12 6 16 9 W -
16.07.2019 01:00:00 24,7 14,5 2 1 10 5 S 0,0
16.07.2019 00:00:00 24,9 15,2 5 3 8 5 SW 0,0
15.07.2019 23:00:00 25,4 15,7 10 5 20 11 NE 0,0
15.07.2019 22:00:00 25,6 16,5 18 10 28 15 ENE 0,0
15.07.2019 21:00:00 25,5 16,6 21 12 27 14 ENE 0,0
15.07.2019 20:00:00 25,8 16,4 18 10 25 13 E -
15.07.2019 19:00:00 25,7 16,5 18 10 25 14 ENE 0,0
15.07.2019 18:00:00 26,3 18,7 19 10 25 14 E 0,0
15.07.2019 17:00:00 26,5 17,8 21 12 29 16 NNE 0,0
15.07.2019 16:00:00 26,5 17,6 23 12 27 15 NNE 0,0
15.07.2019 15:00:00 27,8 18,5 18 10 28 15 NNE 0,0
15.07.2019 14:00:00 26,8 17,6 22 12 29 16 NNE -
15.07.2019 13:00:00 27,4 18,4 19 10 29 15 NNE 0,0
15.07.2019 12:00:00 27,0 18,6 18 10 24 13 NNE 0,0
15.07.2019 11:00:00 27,3 21,3 19 10 29 16 N 0,0
15.07.2019 10:00:00 27,3 20,4 21 11 28 15 NNE 0,0
15.07.2019 09:00:00 28,3 18,7 11 6 19 11 E 0,0
15.07.2019 08:00:00 27,0 15,7 1 0 10 5 W -
15.07.2019 07:00:00 25,5 15,2 4 2 8 4 SW 0,0
15.07.2019 06:00:00 25,2 14,9 4 2 7 4 SSW 0,0
15.07.2019 05:00:00 25,3 15,6 2 1 8 4 NW 0,0
15.07.2019 04:00:00 25,8 15,2 1 0 17 9 NE 0,0
15.07.2019 03:00:00 25,9 15,6 11 6 17 9 W 0,0
15.07.2019 02:00:00 24,9 15,8 8 4 12 6 W -
15.07.2019 01:00:00 24,7 15,6 10 5 13 7 W 0,0
15.07.2019 00:00:00 24,6 17,3 8 4 14 8 W 0,0
14.07.2019 23:00:00 24,9 17,4 8 5 24 13 NNW 0,0
14.07.2019 22:00:00 25,1 19,0 22 12 28 15 NNW 0,0
14.07.2019 21:00:00 25,6 19,5 22 12 32 18 NNW 0,0
14.07.2019 20:00:00 26,3 18,9 25 14 35 19 N -
14.07.2019 19:00:00 26,4 19,3 22 12 30 16 NNE 0,0
14.07.2019 18:00:00 27,4 21,4 13 7 21 11 NNW 0,0
14.07.2019 17:00:00 27,6 20,9 8 5 18 10 E 0,0
14.07.2019 16:00:00 27,7 21,3 18 10 29 16 E 0,0
14.07.2019 15:00:00 27,8 21,6 18 10 35 19 E 0,0
14.07.2019 14:00:00 27,5 22,0 22 12 26 14 E -
14.07.2019 13:00:00 26,6 22,2 21 12 27 14 E 0,0
14.07.2019 12:00:00 27,8 23,0 19 11 24 13 E 0,0
14.07.2019 11:00:00 29,5 22,5 11 6 21 11 SSE 0,0
14.07.2019 10:00:00 27,1 22,1 18 10 22 12 ESE 0,0
14.07.2019 09:00:00 26,6 21,8 8 5 41 22 ESE 0,0
14.07.2019 08:00:00 25,1 21,8 23 13 34 18 SE -
14.07.2019 07:00:00 24,7 21,2 13 7 21 11 SSE 0,0
14.07.2019 06:00:00 24,1 21,2 3 2 18 10 WNW 0,0
14.07.2019 05:00:00 24,4 21,3 14 7 21 11 SSW 0,0
14.07.2019 04:00:00 24,5 20,4 6 3 28 15 SSW 0,0
14.07.2019 03:00:00 24,8 20,1 8 5 24 13 S 0,0
14.07.2019 02:00:00 24,9 20,4 6 3 17 9 SSW -
14.07.2019 01:00:00 25,3 20,5 12 6 17 9 S 0,0
14.07.2019 00:00:00 25,3 20,3 9 5 14 7 SSW 0,0
13.07.2019 23:00:00 25,7 20,5 8 5 14 7 SSE 0,0
13.07.2019 22:00:00 25,9 20,2 11 6 16 9 SSE 0,0
13.07.2019 21:00:00 26,2 20,1 14 8 17 9 SSE 0,0
13.07.2019 20:00:00 26,7 20,5 13 7 18 10 SSE -
13.07.2019 19:00:00 27,3 20,9 13 7 21 12 SSE 0,0
13.07.2019 18:00:00 27,1 20,2 13 7 21 12 NE 0,0
13.07.2019 17:00:00 27,9 20,2 18 10 26 14 NNE 0,0
13.07.2019 16:00:00 28,6 20,9 19 11 25 13 N 0,0
13.07.2019 15:00:00 28,4 21,4 17 9 25 14 N 0,0
13.07.2019 14:00:00 29,2 21,7 18 10 24 13 N -
13.07.2019 13:00:00 28,5 21,5 16 9 22 12 NNW 0,0
13.07.2019 12:00:00 29,5 22,0 13 7 19 11 NNW 0,0
13.07.2019 11:00:00 30,4 21,5 11 6 16 9 NNW 0,0
13.07.2019 10:00:00 28,7 21,0 12 6 21 11 NNW 0,0
13.07.2019 09:00:00 27,4 19,5 16 9 21 11 NNW 0,0
13.07.2019 08:00:00 25,6 22,1 14 8 16 9 NNW -
13.07.2019 07:00:00 24,9 20,4 9 5 14 8 NNW 0,0
13.07.2019 06:00:00 25,0 21,7 4 2 16 8 WNW 0,0
13.07.2019 05:00:00 25,4 21,5 13 7 16 8 NNW 0,0
13.07.2019 04:00:00 25,3 16,4 7 4 10 6 NW 0,0
13.07.2019 03:00:00 25,2 20,0 2 1 9 5 SSW 0,0
13.07.2019 02:00:00 25,4 21,3 1 1 11 6 SSE -
13.07.2019 01:00:00 25,4 21,7 2 1 12 6 SW 0,0
13.07.2019 00:00:00 25,4 22,7 8 4 13 7 SSW 0,0
12.07.2019 23:00:00 25,7 22,6 9 5 16 9 S 0,0
12.07.2019 22:00:00 25,9 22,0 9 5 20 11 S 0,0
12.07.2019 21:00:00 26,3 21,9 11 6 21 12 S 0,0
12.07.2019 20:00:00 27,2 21,5 15 8 18 10 S -
12.07.2019 19:00:00 28,1 20,6 13 7 16 9 S 0,0
12.07.2019 18:00:00 29,9 21,3 13 7 16 8 S 0,0
12.07.2019 17:00:00 28,9 21,4 10 5 13 7 SE 0,0
12.07.2019 16:00:00 29,0 22,0 8 4 13 7 ENE 0,0
12.07.2019 15:00:00 29,6 21,8 7 4 11 6 ESE 0,0
12.07.2019 14:00:00 29,5 22,0 4 2 9 5 E -
12.07.2019 13:00:00 30,0 22,2 7 4 14 8 N 0,0
12.07.2019 12:00:00 30,2 22,4 13 7 18 10 NNW 0,0
12.07.2019 11:00:00 29,2 21,4 14 8 23 12 NNW 0,0
12.07.2019 10:00:00 27,4 21,2 18 10 27 15 NNW 0,0
12.07.2019 09:00:00 27,8 17,6 16 9 21 11 NNW 0,0
12.07.2019 08:00:00 28,5 17,4 6 4 9 5 W -
12.07.2019 07:00:00 25,6 17,3 3 2 8 4 NNW 0,0

tt = temperature
td = dewpoint
ff = wind speed
fx = gusts
dd = wind direction
rr = precipitation

Next stations